Main page
METAR-TAF:

METAR-TAF

Airports :

Büchel Air Base

Büchel, Germany

latitude: 50-10N, longitude: 007-04E, elevation: 478 m

Current weather observation

The report was made 57 minutes ago, at 00:20 UTC
Wind 3 kt from the South/Southwest
Temperature 13°C
Humidity 58%
Pressure 999 hPa
Visibility 10 km or more

METAR: ETSB 240020Z AUTO 20003KT 9999 // ////// 13/05 Q0999 ///

Time: 03:17 (01:17 UTC)

Forecast

The report was made 4 hours and 1 minutes ago, at 21:16 UTC
Forecast valid from 23 at 21 UTC to 24 at 02 UTC
Wind 8 kt from the South/Southeast
Visibility: 2116 m
Few clouds at a height of 11000 ft
Broken clouds at a height of 20000 ft

TAF: ETSB 232116Z 2321/2402 16008KT 9999 NSW FEW110 BKN200 CANCEL 2116 BY ETGL

Weather observations and forecasts of more than 4000 airports (METAR and TAF reports).

The available stations are represented by yellow and red dots on the map.

Hover mouse over dot to see the name of the station.

Then click to see weather observations and forecasts.

To change the map : click on the green buttons with a black cross to zoom in, on the green button with a dash to zoom out, or on the green arrows for adjacent maps.


METAR-TAF: